Walsh, Canada
Current Conditions -  °F | °C
As of 5:00 AM on Sunday 21 Dec 2014 (Local Time) from CYXH Reporting Station
Overcast Overcast  
Wind Chill: 29°   Ceiling: 8500
Heat Index: 36°   Visibility: 9mi
Dew Point: 30°   Wind: 9mph
Humidity: 81%   Direction: 190°S
Pressure: 29.25"   Gusts: NA
Location:  49.95°N, 110.03°W
Report Text: CYXH 211200Z AUTO 19008KT 9SM OVC085 02/M01 A2925 RMK SLP926
Loading
Personal Weather Stations






























Interactive Weather Map New forecast layout! Learn more

10-Day Weather Forecast

Advertisements
Track Severe Weather on mobile